sensor_id;sensor_type;location;lat;lon;timestamp;pressure;altitude;pressure_sealevel;temperature;humidity
63285;BME280;49409;55.708;37.522;2022-08-19T00:02:04;99977.22;;;26.24;37.07
63285;BME280;49409;55.708;37.522;2022-08-19T00:04:34;99987.47;;;26.16;37.21
63285;BME280;49409;55.708;37.522;2022-08-19T00:07:01;99995.19;;;26.78;36.30
63285;BME280;49409;55.708;37.522;2022-08-19T00:09:28;99962.63;;;26.15;36.84
63285;BME280;49409;55.708;37.522;2022-08-19T00:11:54;99995.19;;;26.21;37.33
63285;BME280;49409;55.708;37.522;2022-08-19T00:14:20;99984.66;;;26.05;37.54
63285;BME280;49409;55.708;37.522;2022-08-19T00:16:47;99987.72;;;26.01;37.64
63285;BME280;49409;55.708;37.522;2022-08-19T00:19:14;99996.19;;;26.07;38.07
63285;BME280;49409;55.708;37.522;2022-08-19T00:21:40;99999.50;;;26.05;38.03
63285;BME280;49409;55.708;37.522;2022-08-19T00:24:09;100004.13;;;26.03;38.14
63285;BME280;49409;55.708;37.522;2022-08-19T00:26:36;99991.53;;;25.92;38.42
63285;BME280;49409;55.708;37.522;2022-08-19T00:29:03;100001.28;;;25.97;38.61
63285;BME280;49409;55.708;37.522;2022-08-19T00:31:29;99990.47;;;25.84;38.79
63285;BME280;49409;55.708;37.522;2022-08-19T00:33:56;99985.84;;;25.81;38.79
63285;BME280;49409;55.708;37.522;2022-08-19T00:36:22;100009.44;;;25.89;38.78
63285;BME280;49409;55.708;37.522;2022-08-19T00:38:47;99990.47;;;25.84;38.67
63285;BME280;49409;55.708;37.522;2022-08-19T00:41:15;100010.69;;;25.83;38.56
63285;BME280;49409;55.708;37.522;2022-08-19T00:43:41;100012.47;;;25.80;39.11
63285;BME280;49409;55.708;37.522;2022-08-19T00:46:07;99966.00;;;25.53;39.02
63285;BME280;49409;55.708;37.522;2022-08-19T00:48:33;100008.63;;;25.72;38.75
63285;BME280;49409;55.708;37.522;2022-08-19T00:50:59;99993.72;;;25.60;39.22
63285;BME280;49409;55.708;37.522;2022-08-19T00:53:29;100010.41;;;25.69;38.77
63285;BME280;49409;55.708;37.522;2022-08-19T00:55:59;100011.44;;;25.72;39.44
63285;BME280;49409;55.708;37.522;2022-08-19T00:58:30;100025.53;;;25.72;38.90
63285;BME280;49409;55.708;37.522;2022-08-19T01:00:56;99980.03;;;25.36;39.12
63285;BME280;49409;55.708;37.522;2022-08-19T01:03:22;100001.09;;;25.46;39.38
63285;BME280;49409;55.708;37.522;2022-08-19T01:05:49;100032.44;;;25.65;39.58
63285;BME280;49409;55.708;37.522;2022-08-19T01:08:17;100024.16;;;25.50;39.32
63285;BME280;49409;55.708;37.522;2022-08-19T01:10:47;100034.97;;;25.58;39.54
63285;BME280;49409;55.708;37.522;2022-08-19T01:13:15;100039.03;;;25.57;39.67
63285;BME280;49409;55.708;37.522;2022-08-19T01:15:46;100041.06;;;25.50;39.46
63285;BME280;49409;55.708;37.522;2022-08-19T01:18:15;100044.16;;;25.52;39.25
63285;BME280;49409;55.708;37.522;2022-08-19T01:20:42;100033.84;;;25.38;39.37
63285;BME280;49409;55.708;37.522;2022-08-19T01:23:08;100035.59;;;25.30;39.33
63285;BME280;49409;55.708;37.522;2022-08-19T01:25:52;100043.09;;;25.44;39.37
63285;BME280;49409;55.708;37.522;2022-08-19T01:28:26;100039.97;;;25.37;39.49
63285;BME280;49409;55.708;37.522;2022-08-19T01:30:53;100044.03;;;25.30;39.62
63285;BME280;49409;55.708;37.522;2022-08-19T01:33:20;100023.94;;;25.17;40.36
63285;BME280;49409;55.708;37.522;2022-08-19T01:35:47;100035.66;;;25.09;39.97
63285;BME280;49409;55.708;37.522;2022-08-19T01:38:25;100040.41;;;25.24;40.14
63285;BME280;49409;55.708;37.522;2022-08-19T01:40:51;100048.50;;;25.10;40.46
63285;BME280;49409;55.708;37.522;2022-08-19T01:43:17;100031.19;;;24.91;40.41
63285;BME280;49409;55.708;37.522;2022-08-19T01:45:45;100024.25;;;24.87;40.25
63285;BME280;49409;55.708;37.522;2022-08-19T01:48:11;100018.28;;;24.73;40.67
63285;BME280;49409;55.708;37.522;2022-08-19T01:50:37;100046.03;;;24.86;40.66
63285;BME280;49409;55.708;37.522;2022-08-19T01:53:08;100025.94;;;24.73;40.67
63285;BME280;49409;55.708;37.522;2022-08-19T01:55:37;100037.53;;;24.81;40.69
63285;BME280;49409;55.708;37.522;2022-08-19T01:58:04;100017.47;;;24.67;41.04
63285;BME280;49409;55.708;37.522;2022-08-19T02:00:31;100028.53;;;24.77;40.97
63285;BME280;49409;55.708;37.522;2022-08-19T02:02:57;100014.38;;;24.65;41.03
63285;BME280;49409;55.708;37.522;2022-08-19T02:05:23;100002.25;;;24.53;40.81
63285;BME280;49409;55.708;37.522;2022-08-19T02:07:49;100020.50;;;24.64;40.70
63285;BME280;49409;55.708;37.522;2022-08-19T02:10:19;100026.94;;;24.70;40.66
63285;BME280;49409;55.708;37.522;2022-08-19T02:12:45;100018.00;;;24.71;40.94
63285;BME280;49409;55.708;37.522;2022-08-19T02:15:11;100001.03;;;24.60;40.56
63285;BME280;49409;55.708;37.522;2022-08-19T02:17:38;100005.13;;;24.59;41.10
63285;BME280;49409;55.708;37.522;2022-08-19T02:20:04;100023.09;;;24.67;40.78
63285;BME280;49409;55.708;37.522;2022-08-19T02:22:31;100021.47;;;24.55;41.42
63285;BME280;49409;55.708;37.522;2022-08-19T02:24:57;100040.78;;;24.47;41.35
63285;BME280;49409;55.708;37.522;2022-08-19T02:27:23;100057.25;;;24.54;41.24
63285;BME280;49409;55.708;37.522;2022-08-19T02:29:49;100055.22;;;24.55;41.04
63285;BME280;49409;55.708;37.522;2022-08-19T02:32:16;100077.28;;;24.62;41.10
63285;BME280;49409;55.708;37.522;2022-08-19T02:34:43;100068.56;;;24.60;41.07
63285;BME280;49409;55.708;37.522;2022-08-19T02:37:08;100058.53;;;24.53;41.02
63285;BME280;49409;55.708;37.522;2022-08-19T02:39:54;100050.09;;;24.53;40.89
63285;BME280;49409;55.708;37.522;2022-08-19T02:42:19;100033.84;;;24.43;41.03
63285;BME280;49409;55.708;37.522;2022-08-19T02:44:45;100047.47;;;24.50;41.34
63285;BME280;49409;55.708;37.522;2022-08-19T02:47:10;100049.88;;;24.57;41.01
63285;BME280;49409;55.708;37.522;2022-08-19T02:49:36;100049.03;;;24.51;40.97
63285;BME280;49409;55.708;37.522;2022-08-19T02:52:02;100067.56;;;24.63;41.14
63285;BME280;49409;55.708;37.522;2022-08-19T02:54:28;100061.94;;;24.63;41.58
63285;BME280;49409;55.708;37.522;2022-08-19T02:56:54;100051.63;;;24.54;41.35
63285;BME280;49409;55.708;37.522;2022-08-19T02:59:19;100059.69;;;24.67;40.74
63285;BME280;49409;55.708;37.522;2022-08-19T03:01:45;100059.94;;;24.69;40.93
63285;BME280;49409;55.708;37.522;2022-08-19T03:04:15;100059.63;;;24.62;40.94
63285;BME280;49409;55.708;37.522;2022-08-19T03:06:43;100068.13;;;24.67;40.95
63285;BME280;49409;55.708;37.522;2022-08-19T03:09:10;100071.97;;;24.70;41.35
63285;BME280;49409;55.708;37.522;2022-08-19T03:11:36;100059.69;;;24.67;41.14
63285;BME280;49409;55.708;37.522;2022-08-19T03:14:03;100047.06;;;24.57;41.08
63285;BME280;49409;55.708;37.522;2022-08-19T03:16:32;100069.38;;;24.66;41.04
63285;BME280;49409;55.708;37.522;2022-08-19T03:18:58;100049.38;;;24.59;41.42
63285;BME280;49409;55.708;37.522;2022-08-19T03:21:31;100075.56;;;24.70;41.27
63285;BME280;49409;55.708;37.522;2022-08-19T03:23:59;100081.75;;;24.74;41.15
63285;BME280;49409;55.708;37.522;2022-08-19T03:26:25;100075.06;;;24.72;41.00
63285;BME280;49409;55.708;37.522;2022-08-19T03:28:51;100078.94;;;24.74;41.58
63285;BME280;49409;55.708;37.522;2022-08-19T03:31:20;100068.66;;;24.71;41.40
63285;BME280;49409;55.708;37.522;2022-08-19T03:33:50;100070.75;;;24.77;41.44
63285;BME280;49409;55.708;37.522;2022-08-19T03:36:19;100085.66;;;24.83;41.21
63285;BME280;49409;55.708;37.522;2022-08-19T03:38:51;100072.75;;;24.70;41.46
63285;BME280;49409;55.708;37.522;2022-08-19T03:41:24;100079.00;;;24.86;41.03
63285;BME280;49409;55.708;37.522;2022-08-19T03:43:51;100085.66;;;24.83;41.44
63285;BME280;49409;55.708;37.522;2022-08-19T03:46:20;100062.72;;;24.64;41.46
63285;BME280;49409;55.708;37.522;2022-08-19T03:48:47;100061.03;;;24.78;41.27
63285;BME280;49409;55.708;37.522;2022-08-19T03:51:25;100076.25;;;24.91;41.25
63285;BME280;49409;55.708;37.522;2022-08-19T03:53:52;100053.88;;;24.77;41.49
63285;BME280;49409;55.708;37.522;2022-08-19T03:56:18;100068.28;;;24.90;41.29
63285;BME280;49409;55.708;37.522;2022-08-19T03:58:44;100075.03;;;24.98;41.92
63285;BME280;49409;55.708;37.522;2022-08-19T04:01:16;100069.41;;;25.04;41.28
63285;BME280;49409;55.708;37.522;2022-08-19T04:03:43;100058.91;;;24.99;41.65
63285;BME280;49409;55.708;37.522;2022-08-19T04:06:15;100068.75;;;25.14;41.42
63285;BME280;49409;55.708;37.522;2022-08-19T04:08:42;100021.72;;;24.89;41.29
63285;BME280;49409;55.708;37.522;2022-08-19T04:11:17;100070.66;;;25.29;41.07
63285;BME280;49409;55.708;37.522;2022-08-19T04:13:42;100065.50;;;25.22;41.17
63285;BME280;49409;55.708;37.522;2022-08-19T04:16:10;100089.16;;;25.36;40.90
63285;BME280;49409;55.708;37.522;2022-08-19T04:18:37;100084.19;;;25.25;41.05
63285;BME280;49409;55.708;37.522;2022-08-19T04:21:04;100075.28;;;25.32;40.82
63285;BME280;49409;55.708;37.522;2022-08-19T04:23:31;100085.03;;;25.37;40.90
63285;BME280;49409;55.708;37.522;2022-08-19T04:25:56;100085.81;;;25.37;40.81
63285;BME280;49409;55.708;37.522;2022-08-19T04:28:23;100075.06;;;25.36;40.80
63285;BME280;49409;55.708;37.522;2022-08-19T04:30:51;100060.66;;;25.28;41.22
63285;BME280;49409;55.708;37.522;2022-08-19T04:33:20;100049.84;;;25.21;40.58
63285;BME280;49409;55.708;37.522;2022-08-19T04:35:47;100085.16;;;25.53;41.17
63285;BME280;49409;55.708;37.522;2022-08-19T04:38:15;100070.22;;;25.42;41.03
63285;BME280;49409;55.708;37.522;2022-08-19T04:40:47;100095.47;;;25.68;40.38
63285;BME280;49409;55.708;37.522;2022-08-19T04:43:32;100086.94;;;25.57;40.67
63285;BME280;49409;55.708;37.522;2022-08-19T04:45:58;100093.91;;;25.67;40.63
63285;BME280;49409;55.708;37.522;2022-08-19T04:48:24;100102.16;;;25.76;40.46
63285;BME280;49409;55.708;37.522;2022-08-19T04:50:54;100077.78;;;25.73;40.49
63285;BME280;49409;55.708;37.522;2022-08-19T04:53:24;100074.78;;;25.82;40.33
63285;BME280;49409;55.708;37.522;2022-08-19T04:55:50;100095.63;;;26.02;39.77
63285;BME280;49409;55.708;37.522;2022-08-19T04:58:17;100083.88;;;26.09;39.70
63285;BME280;49409;55.708;37.522;2022-08-19T05:00:42;100083.88;;;26.20;40.05
63285;BME280;49409;55.708;37.522;2022-08-19T05:03:09;100079.84;;;26.33;39.52
63285;BME280;49409;55.708;37.522;2022-08-19T05:05:40;100101.47;;;26.69;39.26
63285;BME280;49409;55.708;37.522;2022-08-19T05:08:06;100083.78;;;26.80;38.78
63285;BME280;49409;55.708;37.522;2022-08-19T05:10:35;100080.94;;;26.86;38.58
63285;BME280;49409;55.708;37.522;2022-08-19T05:13:02;100086.06;;;27.04;38.75
63285;BME280;49409;55.708;37.522;2022-08-19T05:15:28;100068.63;;;26.89;38.33
63285;BME280;49409;55.708;37.522;2022-08-19T05:17:53;100094.78;;;27.06;38.32
63285;BME280;49409;55.708;37.522;2022-08-19T05:20:38;100094.53;;;27.10;38.24
63285;BME280;49409;55.708;37.522;2022-08-19T05:23:30;100103.03;;;27.16;38.63
63285;BME280;49409;55.708;37.522;2022-08-19T05:25:55;100093.75;;;27.21;38.80
63285;BME280;49409;55.708;37.522;2022-08-19T05:28:21;100093.25;;;27.28;38.33
63285;BME280;49409;55.708;37.522;2022-08-19T05:30:47;100058.84;;;27.13;38.52
63285;BME280;49409;55.708;37.522;2022-08-19T05:33:14;100075.53;;;27.27;37.99
63285;BME280;49409;55.708;37.522;2022-08-19T05:35:40;100082.22;;;27.30;38.47
63285;BME280;49409;55.708;37.522;2022-08-19T05:38:07;100077.31;;;27.25;38.39
63285;BME280;49409;55.708;37.522;2022-08-19T05:40:38;100088.09;;;27.43;38.25
63285;BME280;49409;55.708;37.522;2022-08-19T05:43:05;100099.66;;;27.51;38.73
63285;BME280;49409;55.708;37.522;2022-08-19T05:45:31;100058.31;;;27.20;38.00
63285;BME280;49409;55.708;37.522;2022-08-19T05:47:56;100078.38;;;27.33;38.03
63285;BME280;49409;55.708;37.522;2022-08-19T05:50:24;100090.94;;;27.38;38.44
63285;BME280;49409;55.708;37.522;2022-08-19T05:52:52;100081.72;;;27.26;38.40
63285;BME280;49409;55.708;37.522;2022-08-19T05:55:18;100081.69;;;27.32;38.25
63285;BME280;49409;55.708;37.522;2022-08-19T05:57:46;100098.34;;;27.41;38.49
63285;BME280;49409;55.708;37.522;2022-08-19T06:00:12;100081.69;;;27.37;38.18
63285;BME280;49409;55.708;37.522;2022-08-19T06:02:39;100096.28;;;27.53;38.30
63285;BME280;49409;55.708;37.522;2022-08-19T06:05:05;100097.84;;;27.54;38.75
63285;BME280;49409;55.708;37.522;2022-08-19T06:07:32;100078.81;;;27.48;38.41
63285;BME280;49409;55.708;37.522;2022-08-19T06:09:58;100082.66;;;27.57;37.95
63285;BME280;49409;55.708;37.522;2022-08-19T06:12:24;100094.69;;;27.74;38.29
63285;BME280;49409;55.708;37.522;2022-08-19T06:14:56;100094.41;;;27.83;38.68
63285;BME280;49409;55.708;37.522;2022-08-19T06:17:21;100065.41;;;27.66;37.95
63285;BME280;49409;55.708;37.522;2022-08-19T06:19:49;100100.81;;;27.84;37.41
63285;BME280;49409;55.708;37.522;2022-08-19T06:22:15;100112.63;;;27.94;37.78
63285;BME280;49409;55.708;37.522;2022-08-19T06:24:41;100105.94;;;27.97;37.64
63285;BME280;49409;55.708;37.522;2022-08-19T06:27:07;100100.03;;;27.95;37.36
63285;BME280;49409;55.708;37.522;2022-08-19T06:29:33;100106.94;;;27.99;37.29
63285;BME280;49409;55.708;37.522;2022-08-19T06:32:02;100107.97;;;28.02;37.72
63285;BME280;49409;55.708;37.522;2022-08-19T06:34:31;100109.22;;;28.12;37.54
63285;BME280;49409;55.708;37.522;2022-08-19T06:36:59;100099.69;;;28.15;37.52
63285;BME280;49409;55.708;37.522;2022-08-19T06:39:27;100099.66;;;28.21;37.57
63285;BME280;49409;55.708;37.522;2022-08-19T06:41:58;100096.53;;;28.24;37.24
63285;BME280;49409;55.708;37.522;2022-08-19T06:44:26;100068.56;;;28.09;37.44
63285;BME280;49409;55.708;37.522;2022-08-19T06:46:54;100099.09;;;28.28;37.04
63285;BME280;49409;55.708;37.522;2022-08-19T06:49:21;100089.09;;;28.21;36.46
63285;BME280;49409;55.708;37.522;2022-08-19T06:51:48;100104.78;;;28.22;36.83
63285;BME280;49409;55.708;37.522;2022-08-19T06:54:16;100102.22;;;28.24;37.12
63285;BME280;49409;55.708;37.522;2022-08-19T06:56:42;100106.88;;;28.16;36.87
63285;BME280;49409;55.708;37.522;2022-08-19T06:59:12;100099.91;;;28.17;37.08
63285;BME280;49409;55.708;37.522;2022-08-19T07:01:41;100108.91;;;28.21;37.12
63285;BME280;49409;55.708;37.522;2022-08-19T07:04:08;100103.28;;;28.10;37.55
63285;BME280;49409;55.708;37.522;2022-08-19T07:06:35;100091.47;;;28.06;37.46
63285;BME280;49409;55.708;37.522;2022-08-19T07:09:05;100103.25;;;28.21;37.32
63285;BME280;49409;55.708;37.522;2022-08-19T07:11:31;100099.91;;;28.23;37.39
63285;BME280;49409;55.708;37.522;2022-08-19T07:13:58;100099.13;;;28.22;36.59
63285;BME280;49409;55.708;37.522;2022-08-19T07:16:24;100100.66;;;28.23;36.87
63285;BME280;49409;55.708;37.522;2022-08-19T07:18:50;100099.91;;;28.23;36.34
63285;BME280;49409;55.708;37.522;2022-08-19T07:21:23;100105.25;;;28.32;36.46
63285;BME280;49409;55.708;37.522;2022-08-19T07:23:50;100094.25;;;28.23;36.33
63285;BME280;49409;55.708;37.522;2022-08-19T07:26:21;100112.41;;;28.39;36.84
63285;BME280;49409;55.708;37.522;2022-08-19T07:28:48;100103.84;;;28.56;36.19
63285;BME280;49409;55.708;37.522;2022-08-19T07:31:16;100105.50;;;28.76;36.31
63285;BME280;49409;55.708;37.522;2022-08-19T07:33:44;100095.53;;;28.99;37.50
63285;BME280;49409;55.708;37.522;2022-08-19T07:36:12;100076.50;;;29.24;35.75
63285;BME280;49409;55.708;37.522;2022-08-19T07:38:43;100102.25;;;29.76;34.92
63285;BME280;49409;55.708;37.522;2022-08-19T07:41:13;100110.13;;;29.89;34.60
63285;BME280;49409;55.708;37.522;2022-08-19T07:43:39;100092.94;;;29.81;33.89
63285;BME280;49409;55.708;37.522;2022-08-19T07:46:06;100119.03;;;29.98;34.28
63285;BME280;49409;55.708;37.522;2022-08-19T07:48:32;100102.28;;;29.95;33.57
63285;BME280;49409;55.708;37.522;2022-08-19T07:51:03;100110.88;;;29.89;33.30
63285;BME280;49409;55.708;37.522;2022-08-19T07:53:29;100108.97;;;30.54;32.64
63285;BME280;49409;55.708;37.522;2022-08-19T07:55:56;100091.19;;;29.97;32.50
63285;BME280;49409;55.708;37.522;2022-08-19T07:58:25;100118.25;;;29.98;32.06
63285;BME280;49409;55.708;37.522;2022-08-19T08:00:51;100117.78;;;29.94;32.52
63285;BME280;49409;55.708;37.522;2022-08-19T08:03:19;100106.69;;;29.96;32.81
63285;BME280;49409;55.708;37.522;2022-08-19T08:05:46;100104.75;;;30.04;32.99
63285;BME280;49409;55.708;37.522;2022-08-19T08:08:30;100108.53;;;30.12;32.26
63285;BME280;49409;55.708;37.522;2022-08-19T08:11:16;100108.44;;;30.18;31.89
63285;BME280;49409;55.708;37.522;2022-08-19T08:13:42;100129.44;;;30.09;32.12
63285;BME280;49409;55.708;37.522;2022-08-19T08:16:08;100131.00;;;30.10;32.12
63285;BME280;49409;55.708;37.522;2022-08-19T08:18:34;100126.00;;;30.16;32.70
63285;BME280;49409;55.708;37.522;2022-08-19T08:21:06;100128.72;;;30.28;32.51
63285;BME280;49409;55.708;37.522;2022-08-19T08:23:32;100143.13;;;30.30;31.89
63285;BME280;49409;55.708;37.522;2022-08-19T08:26:01;100146.34;;;30.20;31.93
63285;BME280;49409;55.708;37.522;2022-08-19T08:28:28;100142.06;;;30.14;32.72
63285;BME280;49409;55.708;37.522;2022-08-19T08:30:54;100131.00;;;30.10;32.87
63285;BME280;49409;55.708;37.522;2022-08-19T08:33:22;100144.78;;;30.19;33.01
63285;BME280;49409;55.708;37.522;2022-08-19T08:36:14;100124.94;;;30.19;32.20
63285;BME280;49409;55.708;37.522;2022-08-19T08:38:42;100130.88;;;30.21;32.03
63285;BME280;49409;55.708;37.522;2022-08-19T08:41:27;100126.25;;;30.18;32.81
63285;BME280;49409;55.708;37.522;2022-08-19T08:43:54;100129.09;;;30.18;32.41
63285;BME280;49409;55.708;37.522;2022-08-19T08:46:48;100135.94;;;30.48;32.46
63285;BME280;49409;55.708;37.522;2022-08-19T08:49:45;100120.84;;;30.39;31.98
63285;BME280;49409;55.708;37.522;2022-08-19T08:52:18;100133.69;;;30.21;32.67
63285;BME280;49409;55.708;37.522;2022-08-19T08:54:49;100133.59;;;30.08;32.73
63285;BME280;49409;55.708;37.522;2022-08-19T08:57:20;100130.59;;;30.00;32.54
63285;BME280;49409;55.708;37.522;2022-08-19T08:59:50;100131.13;;;29.99;32.25
63285;BME280;49409;55.708;37.522;2022-08-19T09:02:18;100130.06;;;30.02;32.12
63285;BME280;49409;55.708;37.522;2022-08-19T09:04:44;100118.84;;;29.91;32.17
63285;BME280;49409;55.708;37.522;2022-08-19T09:10:08;100127.25;;;30.02;32.02
63285;BME280;49409;55.708;37.522;2022-08-19T09:12:57;100107.22;;;30.13;32.02
63285;BME280;49409;55.708;37.522;2022-08-19T09:15:38;100131.78;;;30.30;31.14
63285;BME280;49409;55.708;37.522;2022-08-19T09:18:05;100109.81;;;30.11;31.70
63285;BME280;49409;55.708;37.522;2022-08-19T09:20:32;100125.88;;;30.28;31.31
63285;BME280;49409;55.708;37.522;2022-08-19T09:22:58;100133.31;;;30.31;31.40
63285;BME280;49409;55.708;37.522;2022-08-19T09:25:24;100136.31;;;30.38;31.12
63285;BME280;49409;55.708;37.522;2022-08-19T09:27:51;100147.16;;;30.40;31.26
63285;BME280;49409;55.708;37.522;2022-08-19T09:30:27;100153.50;;;30.46;30.53
63285;BME280;49409;55.708;37.522;2022-08-19T09:32:53;100135.34;;;30.36;30.90
63285;BME280;49409;55.708;37.522;2022-08-19T09:35:21;100127.91;;;30.27;31.04
63285;BME280;49409;55.708;37.522;2022-08-19T09:37:52;100140.88;;;30.47;31.13
63285;BME280;49409;55.708;37.522;2022-08-19T09:40:19;100154.50;;;30.49;31.02
63285;BME280;49409;55.708;37.522;2022-08-19T09:42:46;100150.69;;;30.46;31.13
63285;BME280;49409;55.708;37.522;2022-08-19T09:45:13;100129.81;;;30.43;31.02
63285;BME280;49409;55.708;37.522;2022-08-19T09:47:40;100124.88;;;30.44;31.87
63285;BME280;49409;55.708;37.522;2022-08-19T09:50:08;100147.41;;;30.74;30.96
63285;BME280;49409;55.708;37.522;2022-08-19T09:52:35;100134.63;;;30.68;30.43
63285;BME280;49409;55.708;37.522;2022-08-19T09:55:03;100127.84;;;30.71;30.31
63285;BME280;49409;55.708;37.522;2022-08-19T09:57:29;100156.63;;;30.80;30.67
63285;BME280;49409;55.708;37.522;2022-08-19T09:59:54;100137.75;;;30.83;29.26
63285;BME280;49409;55.708;37.522;2022-08-19T10:02:20;100133.28;;;30.69;28.50
63285;BME280;49409;55.708;37.522;2022-08-19T10:04:45;100145.91;;;30.54;27.62
63285;BME280;49409;55.708;37.522;2022-08-19T10:07:30;100147.44;;;30.55;26.52
63285;BME280;49409;55.708;37.522;2022-08-19T10:09:56;100143.69;;;30.47;25.61
63285;BME280;49409;55.708;37.522;2022-08-19T10:12:21;100120.72;;;30.26;25.91
63285;BME280;49409;55.708;37.522;2022-08-19T10:14:49;100155.53;;;30.51;25.51
63285;BME280;49409;55.708;37.522;2022-08-19T10:17:16;100123.13;;;30.41;26.65
63285;BME280;49409;55.708;37.522;2022-08-19T10:19:43;100133.47;;;30.57;26.61
63285;BME280;49409;55.708;37.522;2022-08-19T10:22:08;100153.25;;;30.82;25.67
63285;BME280;49409;55.708;37.522;2022-08-19T10:24:38;100141.13;;;30.81;25.72
63285;BME280;49409;55.708;37.522;2022-08-19T10:27:04;100160.91;;;30.87;24.95
63285;BME280;49409;55.708;37.522;2022-08-19T10:29:32;100162.75;;;30.84;25.73
63285;BME280;49409;55.708;37.522;2022-08-19T10:32:00;100141.41;;;30.78;24.15
63285;BME280;49409;55.708;37.522;2022-08-19T10:34:28;100154.72;;;30.70;23.16
63285;BME280;49409;55.708;37.522;2022-08-19T10:36:54;100163.63;;;30.60;23.23
63285;BME280;49409;55.708;37.522;2022-08-19T10:39:19;100146.34;;;30.58;21.90
63285;BME280;49409;55.708;37.522;2022-08-19T10:41:45;100153.63;;;30.73;22.60
63285;BME280;49409;55.708;37.522;2022-08-19T10:44:12;100145.44;;;30.50;22.83
63285;BME280;49409;55.708;37.522;2022-08-19T10:46:40;100144.84;;;30.57;23.42
63285;BME280;49409;55.708;37.522;2022-08-19T10:49:08;100157.41;;;30.62;22.93
63285;BME280;49409;55.708;37.522;2022-08-19T10:51:34;100162.16;;;30.73;22.54
63285;BME280;49409;55.708;37.522;2022-08-19T10:54:19;100156.25;;;30.71;22.68
63285;BME280;49409;55.708;37.522;2022-08-19T10:56:45;100165.25;;;30.75;22.11
63285;BME280;49409;55.708;37.522;2022-08-19T10:59:23;100150.78;;;30.73;21.99
63285;BME280;49409;55.708;37.522;2022-08-19T11:01:50;100179.53;;;30.69;22.35
63285;BME280;49409;55.708;37.522;2022-08-19T11:04:17;100173.53;;;30.54;22.55
63285;BME280;49409;55.708;37.522;2022-08-19T11:06:44;100165.72;;;30.60;22.29
63285;BME280;49409;55.708;37.522;2022-08-19T11:09:13;100180.66;;;30.60;21.92
63285;BME280;49409;55.708;37.522;2022-08-19T11:11:41;100152.38;;;30.36;21.98
63285;BME280;49409;55.708;37.522;2022-08-19T11:14:11;100137.75;;;30.26;21.86
63285;BME280;49409;55.708;37.522;2022-08-19T11:16:38;100163.19;;;30.37;22.41
63285;BME280;49409;55.708;37.522;2022-08-19T11:19:06;100162.41;;;30.37;22.18
63285;BME280;49409;55.708;37.522;2022-08-19T11:21:39;100163.31;;;30.45;22.44
63285;BME280;49409;55.708;37.522;2022-08-19T11:24:09;100149.75;;;30.38;22.26
63285;BME280;49409;55.708;37.522;2022-08-19T11:26:37;100146.53;;;30.47;22.12
63285;BME280;49409;55.708;37.522;2022-08-19T11:29:04;100164.78;;;30.52;22.52
63285;BME280;49409;55.708;37.522;2022-08-19T11:31:34;100151.50;;;30.41;22.71
63285;BME280;49409;55.708;37.522;2022-08-19T11:34:04;100161.19;;;30.51;22.91
63285;BME280;49409;55.708;37.522;2022-08-19T11:36:30;100150.81;;;30.35;23.34
63285;BME280;49409;55.708;37.522;2022-08-19T11:38:57;100157.75;;;30.39;22.63
63285;BME280;49409;55.708;37.522;2022-08-19T11:41:24;100151.06;;;30.37;22.84
63285;BME280;49409;55.708;37.522;2022-08-19T11:43:50;100134.16;;;30.25;23.07
63285;BME280;49409;55.708;37.522;2022-08-19T11:46:19;100172.25;;;30.36;23.76
63285;BME280;49409;55.708;37.522;2022-08-19T11:48:45;100170.22;;;30.31;23.88
63285;BME280;49409;55.708;37.522;2022-08-19T11:51:16;100136.53;;;30.21;22.99
63285;BME280;49409;55.708;37.522;2022-08-19T11:53:43;100143.44;;;30.26;23.29
63285;BME280;49409;55.708;37.522;2022-08-19T11:56:09;100156.97;;;30.39;23.75
63285;BME280;49409;55.708;37.522;2022-08-19T11:58:36;100177.16;;;30.54;24.36
63285;BME280;49409;55.708;37.522;2022-08-19T12:01:06;100155.28;;;30.49;24.16
63285;BME280;49409;55.708;37.522;2022-08-19T12:03:32;100146.84;;;30.43;24.60
63285;BME280;49409;55.708;37.522;2022-08-19T12:06:03;100144.09;;;30.38;24.66
63285;BME280;49409;55.708;37.522;2022-08-19T12:08:29;100158.50;;;30.40;24.70
63285;BME280;49409;55.708;37.522;2022-08-19T12:10:54;100153.88;;;30.37;24.90
63285;BME280;49409;55.708;37.522;2022-08-19T12:13:19;100145.94;;;30.35;24.45
63285;BME280;49409;55.708;37.522;2022-08-19T12:15:46;100153.88;;;30.37;24.99
63285;BME280;49409;55.708;37.522;2022-08-19T12:18:12;100129.78;;;30.24;25.44
63285;BME280;49409;55.708;37.522;2022-08-19T12:20:40;100151.75;;;30.43;25.14
63285;BME280;49409;55.708;37.522;2022-08-19T12:23:08;100139.91;;;30.39;25.58
63285;BME280;49409;55.708;37.522;2022-08-19T12:25:35;100144.31;;;30.40;25.63
63285;BME280;49409;55.708;37.522;2022-08-19T12:28:01;100149.13;;;30.26;26.25
63285;BME280;49409;55.708;37.522;2022-08-19T12:30:27;100147.25;;;30.29;26.57
63285;BME280;49409;55.708;37.522;2022-08-19T12:32:52;100132.09;;;30.26;26.65
63285;BME280;49409;55.708;37.522;2022-08-19T12:35:18;100138.22;;;30.30;26.94
63285;BME280;49409;55.708;37.522;2022-08-19T12:37:46;100134.88;;;30.32;27.22
63285;BME280;49409;55.708;37.522;2022-08-19T12:40:13;100137.00;;;30.25;27.21
63285;BME280;49409;55.708;37.522;2022-08-19T12:42:39;100131.47;;;30.14;27.64
63285;BME280;49409;55.708;37.522;2022-08-19T12:45:11;100134.69;;;30.24;27.09
63285;BME280;49409;55.708;37.522;2022-08-19T12:47:38;100138.81;;;30.23;27.85
63285;BME280;49409;55.708;37.522;2022-08-19T12:50:05;100132.59;;;30.24;27.75